Time;durP1;ratioP1;P1;durP2;ratioP2;P2;SDS_P1;SDS_P2;PMS_P1;PMS_P2;Temp;Humidity;BMP_temperature;BMP_pressure;BME280_temperature;BME280_humidity;BME280_pressure;Samples;Min_cycle;Max_cycle;Signal;HPM_P1;HPM_P2
2023/09/19 00:01:12;;;;;;;;;;;;;;;20.41;100.00;99498.77;185153;1238;44790;-58
2023/09/19 00:05:16;;;;;;;;;;;;;;;20.40;100.00;99489.84;185138;1242;45748;-57
2023/09/19 00:09:18;;;;;;;;;;;;;;;20.39;100.00;99489.71;185566;1235;45685;-58
2023/09/19 00:13:24;;;;;;;;;;;;;;;20.39;100.00;99484.39;185754;1237;43374;-59
2023/09/19 00:17:30;;;;;;;;;;;;;;;20.42;100.00;99487.13;185532;1235;58192;-58
2023/09/19 00:21:41;;;;;;;;;;;;;;;20.45;100.00;99489.17;185666;1236;45662;-58
2023/09/19 00:25:43;;;;;;;;;;;;;;;20.41;100.00;99497.82;185717;1235;43266;-58
2023/09/19 00:29:45;;;;;;;;;;;;;;;20.43;100.00;99499.84;185644;1235;43243;-58
2023/09/19 00:33:48;;;;;;;;;;;;;;;20.46;100.00;99495.70;186115;1232;43584;-58
2023/09/19 00:37:57;;;;;;;;;;;;;;;20.49;100.00;99503.08;186177;1232;57418;-58
2023/09/19 00:42:04;;;;;;;;;;;;;;;20.58;100.00;99504.55;186020;1232;43536;-60
2023/09/19 00:46:07;;;;;;;;;;;;;;;20.66;100.00;99500.64;186147;1232;45728;-58
2023/09/19 00:50:14;;;;;;;;;;;;;;;20.68;100.00;99495.81;186134;1232;43748;-58
2023/09/19 00:54:18;;;;;;;;;;;;;;;20.68;100.00;99489.50;185933;1232;43418;-60
2023/09/19 00:58:21;;;;;;;;;;;;;;;20.74;100.00;99485.33;185876;1236;57696;-58
2023/09/19 01:02:23;;;;;;;;;;;;;;;20.79;100.00;99477.75;185967;1232;44246;-58
2023/09/19 01:06:26;;;;;;;;;;;;;;;20.86;100.00;99475.18;185984;1236;45812;-58
2023/09/19 01:10:29;;;;;;;;;;;;;;;20.87;100.00;99480.70;185891;1232;43693;-61
2023/09/19 01:14:42;;;;;;;;;;;;;;;20.76;100.00;99479.13;185860;1232;43494;-58
2023/09/19 01:19:07;;;;;;;;;;;;;;;20.73;100.00;99477.38;185743;1232;59010;-58
2023/09/19 01:23:28;;;;;;;;;;;;;;;20.81;100.00;99482.45;185971;1232;45770;-59
2023/09/19 01:27:36;;;;;;;;;;;;;;;20.76;100.00;99473.67;185932;1232;43250;-59
2023/09/19 01:31:43;;;;;;;;;;;;;;;20.57;100.00;99472.32;185952;1232;43279;-59
2023/09/19 01:35:45;;;;;;;;;;;;;;;20.45;100.00;99472.75;185930;1232;43486;-59
2023/09/19 01:39:52;;;;;;;;;;;;;;;20.46;100.00;99464.54;186078;1232;57853;-59
2023/09/19 01:43:55;;;;;;;;;;;;;;;20.42;100.00;99461.25;185809;1232;44484;-61
2023/09/19 01:48:06;;;;;;;;;;;;;;;20.36;100.00;99458.73;186003;1232;43397;-61
2023/09/19 01:52:28;;;;;;;;;;;;;;;20.32;100.00;99451.79;185892;1232;45767;-59
2023/09/19 01:56:37;;;;;;;;;;;;;;;20.37;100.00;99450.45;185978;1232;44109;-60
2023/09/19 02:01:03;;;;;;;;;;;;;;;20.48;100.00;99453.47;185910;1232;58095;-58
2023/09/19 02:05:06;;;;;;;;;;;;;;;20.53;100.00;99460.80;185998;1232;43893;-61
2023/09/19 02:09:17;;;;;;;;;;;;;;;20.52;100.00;99464.30;185968;1232;45623;-60
2023/09/19 02:13:24;;;;;;;;;;;;;;;20.56;100.00;99460.60;185991;1232;43660;-60
2023/09/19 02:17:28;;;;;;;;;;;;;;;20.56;100.00;99464.50;186038;1232;45659;-59
2023/09/19 02:21:32;;;;;;;;;;;;;;;20.52;100.00;99465.05;186047;1232;59122;-60
2023/09/19 02:25:40;;;;;;;;;;;;;;;20.47;100.00;99465.78;185850;1232;44175;-60
2023/09/19 02:30:11;;;;;;;;;;;;;;;20.48;100.00;99463.48;185888;1232;43583;-58
2023/09/19 02:34:16;;;;;;;;;;;;;;;20.41;100.00;99469.23;185958;1232;43620;-59
2023/09/19 02:38:24;;;;;;;;;;;;;;;20.35;100.00;99471.73;185866;1233;43342;-59
2023/09/19 02:42:26;;;;;;;;;;;;;;;20.29;100.00;99470.38;186065;1232;58197;-61
2023/09/19 02:46:28;;;;;;;;;;;;;;;20.27;100.00;99469.71;186028;1232;43410;-58
2023/09/19 02:50:31;;;;;;;;;;;;;;;20.22;100.00;99465.92;186103;1232;43348;-58
2023/09/19 02:54:33;;;;;;;;;;;;;;;20.18;100.00;99465.56;185862;1232;45758;-58
2023/09/19 02:58:35;;;;;;;;;;;;;;;20.15;100.00;99457.02;186054;1232;43570;-59
2023/09/19 03:02:41;;;;;;;;;;;;;;;20.19;100.00;99459.00;185984;1232;58115;-59
2023/09/19 03:06:44;;;;;;;;;;;;;;;20.21;100.00;99461.69;185858;1232;43235;-58
2023/09/19 03:10:56;;;;;;;;;;;;;;;20.16;100.00;99459.14;185962;1232;43325;-59
2023/09/19 03:14:59;;;;;;;;;;;;;;;20.16;100.00;99456.31;185826;1232;45799;-59
2023/09/19 03:19:03;;;;;;;;;;;;;;;20.17;100.00;99454.19;186008;1232;43280;-60
2023/09/19 03:23:06;;;;;;;;;;;;;;;20.12;100.00;99453.36;185771;1232;58085;-60
2023/09/19 03:27:10;;;;;;;;;;;;;;;20.05;100.00;99455.20;186141;1232;43614;-58
2023/09/19 03:31:12;;;;;;;;;;;;;;;20.01;100.00;99451.13;186170;1232;43312;-58
2023/09/19 03:35:17;;;;;;;;;;;;;;;19.84;100.00;99450.48;185908;1232;43475;-60
2023/09/19 03:39:19;;;;;;;;;;;;;;;19.73;100.00;99454.49;185864;1232;45735;-58
2023/09/19 03:43:26;;;;;;;;;;;;;;;19.68;100.00;99449.35;185959;1232;58095;-58
2023/09/19 03:47:31;;;;;;;;;;;;;;;19.68;100.00;99455.83;185997;1232;43843;-58
2023/09/19 03:51:34;;;;;;;;;;;;;;;19.69;100.00;99455.77;185973;1232;45655;-58
2023/09/19 03:55:38;;;;;;;;;;;;;;;19.67;100.00;99459.94;186142;1232;43574;-61
2023/09/19 03:59:42;;;;;;;;;;;;;;;19.65;100.00;99456.27;185891;1232;45700;-58
2023/09/19 04:03:47;;;;;;;;;;;;;;;19.62;100.00;99451.78;186074;1236;58671;-58
2023/09/19 04:07:50;;;;;;;;;;;;;;;19.62;100.00;99454.27;186045;1232;43354;-58
2023/09/19 04:12:16;;;;;;;;;;;;;;;19.66;100.00;99457.73;186013;1232;43308;-59
2023/09/19 04:16:33;;;;;;;;;;;;;;;19.69;100.00;99456.61;185687;1234;45755;-59
2023/09/19 04:20:36;;;;;;;;;;;;;;;19.69;100.00;99458.52;185919;1234;43266;-58
2023/09/19 04:24:38;;;;;;;;;;;;;;;19.69;100.00;99465.79;186020;1236;58326;-59
2023/09/19 04:28:40;;;;;;;;;;;;;;;19.64;100.00;99468.89;185885;1234;43865;-58
2023/09/19 04:32:43;;;;;;;;;;;;;;;19.59;100.00;99474.69;185696;1234;45883;-58
2023/09/19 04:36:46;;;;;;;;;;;;;;;19.55;100.00;99480.30;185691;1233;45683;-58
2023/09/19 04:40:48;;;;;;;;;;;;;;;19.52;100.00;99482.64;185983;1233;45653;-57
2023/09/19 04:44:53;;;;;;;;;;;;;;;19.45;100.00;99485.61;185826;1235;58181;-58
2023/09/19 04:48:55;;;;;;;;;;;;;;;19.36;100.00;99489.36;185963;1233;44496;-58
2023/09/19 04:53:00;;;;;;;;;;;;;;;19.31;100.00;99492.88;185918;1234;43268;-58
2023/09/19 04:57:44;;;;;;;;;;;;;;;19.32;100.00;99496.58;185919;1233;44083;-57
2023/09/19 05:01:48;;;;;;;;;;;;;;;19.36;100.00;99496.05;185998;1235;45777;-57
2023/09/19 05:05:51;;;;;;;;;;;;;;;19.36;100.00;99496.42;186028;1236;57889;-57
2023/09/19 05:09:57;;;;;;;;;;;;;;;19.33;100.00;99500.55;185861;1234;43148;-59
2023/09/19 05:14:03;;;;;;;;;;;;;;;19.32;100.00;99508.44;186009;1233;44462;-58
2023/09/19 05:18:06;;;;;;;;;;;;;;;19.35;100.00;99510.98;185933;1234;44351;-59
2023/09/19 05:22:12;;;;;;;;;;;;;;;19.39;100.00;99517.80;185974;1235;43592;-58
2023/09/19 05:26:16;;;;;;;;;;;;;;;19.48;100.00;99517.98;185998;1234;59764;-58
2023/09/19 05:30:20;;;;;;;;;;;;;;;19.61;100.00;99522.91;186024;1233;45694;-58
2023/09/19 05:34:22;;;;;;;;;;;;;;;19.78;100.00;99515.80;185879;1234;43287;-57
2023/09/19 05:38:26;;;;;;;;;;;;;;;20.12;100.00;99518.59;186026;1233;43580;-58
2023/09/19 05:42:30;;;;;;;;;;;;;;;20.57;100.00;99523.68;185622;1236;45857;-58
2023/09/19 05:46:32;;;;;;;;;;;;;;;20.95;100.00;99518.25;185974;1234;59429;-58
2023/09/19 05:50:38;;;;;;;;;;;;;;;21.49;100.00;99533.55;185975;1233;44327;-58
2023/09/19 05:54:42;;;;;;;;;;;;;;;21.90;100.00;99540.11;185814;1234;45783;-57
2023/09/19 05:58:46;;;;;;;;;;;;;;;21.94;100.00;99539.55;185584;1235;45710;-56
2023/09/19 06:02:59;;;;;;;;;;;;;;;22.00;100.00;99545.10;185687;1237;43552;-58
2023/09/19 06:07:03;;;;;;;;;;;;;;;22.12;100.00;99552.71;185837;1234;58042;-58
2023/09/19 06:11:07;;;;;;;;;;;;;;;22.10;100.00;99547.81;185984;1233;45664;-58
2023/09/19 06:15:14;;;;;;;;;;;;;;;21.98;100.00;99550.92;185910;1234;43607;-58
2023/09/19 06:19:17;;;;;;;;;;;;;;;21.92;100.00;99560.10;186004;1233;43690;-58
2023/09/19 06:23:26;;;;;;;;;;;;;;;21.77;100.00;99566.15;186038;1234;45634;-59
2023/09/19 06:27:29;;;;;;;;;;;;;;;21.69;100.00;99569.02;185900;1237;57367;-57
2023/09/19 06:31:31;;;;;;;;;;;;;;;21.76;100.00;99576.98;186209;1233;43340;-57
2023/09/19 06:35:34;;;;;;;;;;;;;;;21.92;100.00;99579.50;185862;1234;45786;-58
2023/09/19 06:39:36;;;;;;;;;;;;;;;22.08;100.00;99583.16;185639;1234;45102;-58
2023/09/19 06:43:39;;;;;;;;;;;;;;;22.13;100.00;99587.45;185941;1234;45799;-57
2023/09/19 06:47:41;;;;;;;;;;;;;;;22.02;100.00;99587.89;186092;1234;59049;-57
2023/09/19 06:51:46;;;;;;;;;;;;;;;21.96;100.00;99599.59;186001;1233;45132;-58
2023/09/19 06:55:52;;;;;;;;;;;;;;;21.80;100.00;99601.95;185944;1234;44654;-58
2023/09/19 06:59:54;;;;;;;;;;;;;;;21.56;100.00;99607.10;185935;1233;43215;-58
2023/09/19 07:03:56;;;;;;;;;;;;;;;21.56;100.00;99611.18;185987;1233;45582;-57
2023/09/19 07:07:59;;;;;;;;;;;;;;;21.53;100.00;99611.13;185946;1234;58062;-59
2023/09/19 07:12:01;;;;;;;;;;;;;;;21.59;100.00;99617.23;186023;1233;45650;-58
2023/09/19 07:16:10;;;;;;;;;;;;;;;21.60;100.00;99619.92;186021;1233;43720;-57
2023/09/19 07:20:16;;;;;;;;;;;;;;;21.51;100.00;99624.85;185899;1233;43524;-58
2023/09/19 07:24:23;;;;;;;;;;;;;;;21.28;100.00;99633.47;185965;1233;44281;-58
2023/09/19 07:28:25;;;;;;;;;;;;;;;21.00;100.00;99633.49;185835;1233;58201;-57
2023/09/19 07:32:27;;;;;;;;;;;;;;;20.94;100.00;99639.16;185873;1233;44239;-58
2023/09/19 07:36:30;;;;;;;;;;;;;;;20.78;100.00;99645.18;185979;1233;43624;-57
2023/09/19 07:40:32;;;;;;;;;;;;;;;20.58;100.00;99649.29;186033;1233;43347;-59
2023/09/19 07:44:38;;;;;;;;;;;;;;;20.52;100.00;99654.23;185754;1234;46193;-58
2023/09/19 07:48:40;;;;;;;;;;;;;;;20.43;100.00;99660.45;185884;1233;57220;-58
2023/09/19 07:52:44;;;;;;;;;;;;;;;20.42;100.00;99663.50;185988;1234;45788;-57
2023/09/19 07:56:46;;;;;;;;;;;;;;;20.35;100.00;99669.75;185543;1233;43292;-57
2023/09/19 08:00:49;;;;;;;;;;;;;;;20.40;100.00;99676.09;185857;1237;46068;-58
2023/09/19 08:04:51;;;;;;;;;;;;;;;20.36;100.00;99675.69;185930;1233;43149;-57
2023/09/19 08:08:57;;;;;;;;;;;;;;;20.43;100.00;99681.23;185917;1233;58688;-57
2023/09/19 08:13:02;;;;;;;;;;;;;;;20.49;100.00;99687.39;185955;1233;43358;-58
2023/09/19 08:17:06;;;;;;;;;;;;;;;20.60;100.00;99686.83;185855;1233;43538;-57
2023/09/19 08:21:16;;;;;;;;;;;;;;;20.91;100.00;99689.84;185939;1233;44086;-57
2023/09/19 08:25:21;;;;;;;;;;;;;;;20.97;100.00;99693.77;185899;1234;43672;-59
2023/09/19 08:29:27;;;;;;;;;;;;;;;20.90;100.00;99701.91;185803;1233;59668;-58
2023/09/19 08:33:41;;;;;;;;;;;;;;;20.96;100.00;99702.02;186084;1233;45755;-58
2023/09/19 08:37:48;;;;;;;;;;;;;;;20.95;100.00;99705.95;185970;1234;44221;-57
2023/09/19 08:41:59;;;;;;;;;;;;;;;20.99;100.00;99713.35;185977;1234;44601;-57
2023/09/19 08:46:04;;;;;;;;;;;;;;;21.09;100.00;99717.13;186051;1233;44565;-58
2023/09/19 08:50:23;;;;;;;;;;;;;;;21.07;100.00;99719.33;185869;1234;58502;-58
2023/09/19 08:54:29;;;;;;;;;;;;;;;20.99;100.00;99718.92;185923;1234;43497;-58
2023/09/19 08:58:35;;;;;;;;;;;;;;;21.00;100.00;99725.73;185830;1233;43495;-57
2023/09/19 09:02:40;;;;;;;;;;;;;;;21.02;100.00;99732.06;185939;1233;44258;-58
2023/09/19 09:06:44;;;;;;;;;;;;;;;21.18;100.00;99732.43;185921;1234;45795;-59
2023/09/19 09:10:52;;;;;;;;;;;;;;;21.29;100.00;99734.91;185853;1233;58195;-58
2023/09/19 09:14:54;;;;;;;;;;;;;;;21.43;100.00;99735.14;185711;1233;45664;-57
2023/09/19 09:18:56;;;;;;;;;;;;;;;21.57;100.00;99735.58;185887;1233;43578;-58
2023/09/19 09:23:04;;;;;;;;;;;;;;;21.45;100.00;99743.39;186002;1233;43219;-58
2023/09/19 09:27:10;;;;;;;;;;;;;;;21.42;99.49;99745.75;185916;1234;44723;-58
2023/09/19 09:31:25;;;;;;;;;;;;;;;21.31;99.98;99757.30;185847;1233;57895;-58
2023/09/19 09:35:30;;;;;;;;;;;;;;;21.29;100.00;99760.63;185850;1233;45664;-58
2023/09/19 09:39:32;;;;;;;;;;;;;;;21.50;100.00;99757.27;185834;1233;43307;-58
2023/09/19 09:43:35;;;;;;;;;;;;;;;21.62;100.00;99770.88;185506;1233;45755;-58
2023/09/19 09:47:54;;;;;;;;;;;;;;;21.65;99.65;99774.74;185682;1233;43754;-58
2023/09/19 09:51:59;;;;;;;;;;;;;;;21.57;99.88;99776.24;185905;1233;60397;-58
2023/09/19 09:56:09;;;;;;;;;;;;;;;21.67;99.39;99780.28;185935;1234;43597;-59
2023/09/19 10:04:36;;;;;;;;;;;;;;;21.64;96.03;99777.70;185620;1234;43359;-58
2023/09/19 10:09:02;;;;;;;;;;;;;;;21.94;97.04;99778.67;185843;1234;44173;-58
2023/09/19 10:13:13;;;;;;;;;;;;;;;22.07;92.50;99783.35;185777;1233;57771;-58
2023/09/19 10:17:24;;;;;;;;;;;;;;;22.09;92.50;99784.59;185698;1235;43282;-57
2023/09/19 10:21:36;;;;;;;;;;;;;;;22.36;91.74;99783.09;185554;1233;43726;-59
2023/09/19 10:25:47;;;;;;;;;;;;;;;22.45;88.55;99784.02;185614;1233;45652;-58
2023/09/19 10:29:53;;;;;;;;;;;;;;;22.59;87.28;99786.33;185703;1233;45705;-58
2023/09/19 10:34:09;;;;;;;;;;;;;;;22.62;88.16;99793.94;185716;1234;57944;-57
2023/09/19 10:38:15;;;;;;;;;;;;;;;22.46;85.60;99791.80;185781;1233;44278;-59
2023/09/19 10:42:21;;;;;;;;;;;;;;;22.56;84.27;99784.35;185712;1234;43657;-58
2023/09/19 10:46:23;;;;;;;;;;;;;;;22.79;83.49;99787.25;185747;1235;45591;-58
2023/09/19 10:50:31;;;;;;;;;;;;;;;22.95;82.24;99798.11;185952;1234;43839;-58
2023/09/19 10:54:36;;;;;;;;;;;;;;;23.04;81.74;99803.05;186011;1233;58612;-58
2023/09/19 10:58:44;;;;;;;;;;;;;;;23.10;79.39;99797.96;185911;1233;43399;-58
2023/09/19 11:07:18;;;;;;;;;;;;;;;23.20;80.04;99809.36;185881;1233;44360;-58
2023/09/19 11:11:38;;;;;;;;;;;;;;;23.38;80.30;99807.35;186074;1233;43486;-57
2023/09/19 11:15:59;;;;;;;;;;;;;;;23.37;77.43;99805.58;185929;1233;58203;-56
2023/09/19 11:20:23;;;;;;;;;;;;;;;23.39;76.94;99806.89;185927;1233;43501;-59
2023/09/19 11:24:30;;;;;;;;;;;;;;;23.28;75.45;99794.37;185988;1233;43431;-58
2023/09/19 11:28:38;;;;;;;;;;;;;;;23.00;74.37;99800.59;185551;1233;312027;-58
2023/09/19 11:33:07;;;;;;;;;;;;;;;23.02;75.85;99799.86;185948;1234;43254;-58
2023/09/19 11:37:13;;;;;;;;;;;;;;;23.13;76.32;99798.08;185960;1233;57746;-58
2023/09/19 11:41:21;;;;;;;;;;;;;;;23.16;74.41;99789.02;185894;1234;44811;-59
2023/09/19 11:45:50;;;;;;;;;;;;;;;23.14;74.82;99793.83;185783;1233;44504;-58
2023/09/19 11:49:54;;;;;;;;;;;;;;;23.21;73.24;99794.41;185596;1235;43546;-59
2023/09/19 11:54:24;;;;;;;;;;;;;;;23.22;71.44;99795.54;185829;1234;43407;-59
2023/09/19 11:58:29;;;;;;;;;;;;;;;23.10;71.35;99808.35;185905;1234;56860;-59
2023/09/19 12:02:44;;;;;;;;;;;;;;;23.11;72.81;99811.22;185921;1233;43237;-58
2023/09/19 12:06:58;;;;;;;;;;;;;;;23.22;72.62;99801.55;185742;1233;44608;-58
2023/09/19 12:11:02;;;;;;;;;;;;;;;23.10;70.98;99805.80;185623;1234;43408;-58
2023/09/19 12:15:06;;;;;;;;;;;;;;;23.11;71.57;99801.45;185872;1234;43510;-58
2023/09/19 12:19:23;;;;;;;;;;;;;;;23.36;72.70;99809.71;185986;1234;58203;-58
2023/09/19 12:23:29;;;;;;;;;;;;;;;23.42;69.87;99803.44;185757;1233;43374;-58
2023/09/19 12:27:43;;;;;;;;;;;;;;;23.55;69.13;99798.48;185938;1234;43601;-59
2023/09/19 12:31:50;;;;;;;;;;;;;;;23.54;69.53;99797.95;185660;1233;43309;-58
2023/09/19 12:35:55;;;;;;;;;;;;;;;23.56;68.68;99795.01;185946;1233;45668;-58
2023/09/19 12:44:24;;;;;;;;;;;;;;;23.66;69.52;99796.86;185931;1234;43615;-58
2023/09/19 12:48:34;;;;;;;;;;;;;;;23.90;69.16;99791.06;185913;1234;45873;-59
2023/09/19 12:52:43;;;;;;;;;;;;;;;23.96;66.79;99788.20;185968;1234;44927;-59
2023/09/19 12:56:50;;;;;;;;;;;;;;;23.93;67.83;99781.25;185840;1234;45760;-59
2023/09/19 13:00:55;;;;;;;;;;;;;;;24.07;67.95;99769.78;185937;1234;58324;-59
2023/09/19 13:05:04;;;;;;;;;;;;;;;24.07;67.83;99769.73;185918;1233;44696;-59
2023/09/19 13:09:09;;;;;;;;;;;;;;;24.02;66.87;99766.61;185914;1234;44119;-58
2023/09/19 13:13:29;;;;;;;;;;;;;;;24.17;66.16;99766.57;185912;1233;43731;-59
2023/09/19 13:17:43;;;;;;;;;;;;;;;24.16;66.66;99766.68;185759;1233;43233;-59
2023/09/19 13:21:49;;;;;;;;;;;;;;;24.30;66.24;99764.14;186005;1234;57948;-58
2023/09/19 13:25:54;;;;;;;;;;;;;;;24.29;65.49;99763.29;186073;1233;43772;-59
2023/09/19 13:29:58;;;;;;;;;;;;;;;24.43;64.53;99760.17;185957;1233;43294;-58
2023/09/19 13:34:00;;;;;;;;;;;;;;;24.55;64.71;99760.92;185880;1234;44144;-58
2023/09/19 13:38:02;;;;;;;;;;;;;;;24.72;65.71;99759.74;185988;1234;44665;-58
2023/09/19 13:42:06;;;;;;;;;;;;;;;24.76;64.39;99757.40;185692;1234;58423;-58
2023/09/19 13:46:12;;;;;;;;;;;;;;;24.78;65.15;99758.14;185608;1233;43320;-58
2023/09/19 13:50:24;;;;;;;;;;;;;;;24.60;65.60;99760.97;185871;1233;43553;-59
2023/09/19 13:54:28;;;;;;;;;;;;;;;24.64;64.22;99765.69;185879;1234;44242;-58
2023/09/19 13:58:33;;;;;;;;;;;;;;;24.47;64.47;99759.23;186004;1234;45867;-58
2023/09/19 14:02:39;;;;;;;;;;;;;;;24.26;66.94;99767.67;186060;1234;57802;-57
2023/09/19 14:06:45;;;;;;;;;;;;;;;24.30;66.73;99767.86;185785;1234;43415;-57
2023/09/19 14:10:50;;;;;;;;;;;;;;;24.47;66.47;99763.49;185918;1237;44976;-57
2023/09/19 14:14:52;;;;;;;;;;;;;;;24.63;66.54;99760.88;185936;1237;43200;-59
2023/09/19 14:18:55;;;;;;;;;;;;;;;24.58;66.51;99760.96;186011;1233;43491;-59
2023/09/19 14:23:00;;;;;;;;;;;;;;;24.47;65.48;99761.48;185897;1233;58074;-58
2023/09/19 14:27:06;;;;;;;;;;;;;;;24.33;66.34;99758.08;186041;1233;43293;-58
2023/09/19 14:31:09;;;;;;;;;;;;;;;24.19;64.99;99757.13;185966;1234;44533;-59
2023/09/19 14:35:13;;;;;;;;;;;;;;;23.91;67.45;99760.25;185907;1234;43473;-55
2023/09/19 14:39:23;;;;;;;;;;;;;;;23.68;68.72;99761.89;185629;1234;43542;-56
2023/09/19 14:43:35;;;;;;;;;;;;;;;23.61;68.12;99766.35;185681;1234;57934;-58
2023/09/19 14:47:54;;;;;;;;;;;;;;;23.55;69.05;99767.20;185782;1234;45797;-58
2023/09/19 14:52:10;;;;;;;;;;;;;;;23.78;69.63;99770.93;185866;1234;44019;-59
2023/09/19 14:56:19;;;;;;;;;;;;;;;23.88;68.85;99765.92;185844;1234;43830;-57
2023/09/19 15:00:45;;;;;;;;;;;;;;;23.77;67.90;99771.83;185853;1234;44482;-60
2023/09/19 15:04:54;;;;;;;;;;;;;;;23.60;68.44;99778.92;185649;1233;59001;-58
2023/09/19 15:08:59;;;;;;;;;;;;;;;23.52;68.89;99777.48;185794;1234;44397;-58
2023/09/19 15:13:03;;;;;;;;;;;;;;;23.50;68.34;99779.27;185630;1234;43271;-58
2023/09/19 15:17:12;;;;;;;;;;;;;;;23.48;68.60;99777.63;185566;1235;45713;-58
2023/09/19 15:21:17;;;;;;;;;;;;;;;23.44;69.71;99773.13;185715;1233;45144;-58
2023/09/19 15:25:20;;;;;;;;;;;;;;;23.36;68.92;99776.77;185783;1234;57797;-60
2023/09/19 15:29:24;;;;;;;;;;;;;;;23.31;69.03;99782.96;185505;1233;44400;-58
2023/09/19 15:33:41;;;;;;;;;;;;;;;23.34;68.18;99783.23;185839;1233;45773;-57
2023/09/19 15:37:58;;;;;;;;;;;;;;;23.25;69.59;99784.88;185984;1234;44399;-57
2023/09/19 15:42:01;;;;;;;;;;;;;;;23.13;70.96;99782.53;185974;1233;43542;-57
2023/09/19 15:46:03;;;;;;;;;;;;;;;23.08;70.39;99787.88;185968;1233;57676;-57
2023/09/19 15:50:10;;;;;;;;;;;;;;;23.06;70.57;99789.14;185867;1236;43416;-58
2023/09/19 15:54:19;;;;;;;;;;;;;;;22.93;70.86;99791.16;185882;1234;43415;-58
2023/09/19 15:58:22;;;;;;;;;;;;;;;22.76;71.14;99788.06;185904;1234;43816;-57
2023/09/19 16:02:26;;;;;;;;;;;;;;;22.55;72.91;99790.35;186090;1234;43264;-59
2023/09/19 16:06:31;;;;;;;;;;;;;;;22.36;75.37;99797.35;186015;1234;57049;-58
2023/09/19 16:10:39;;;;;;;;;;;;;;;22.11;77.55;99800.73;186017;1234;44154;-58
2023/09/19 16:14:44;;;;;;;;;;;;;;;21.82;79.45;99808.61;185902;1234;45673;-58
2023/09/19 16:18:50;;;;;;;;;;;;;;;21.58;80.71;99805.95;185890;1235;44255;-58
2023/09/19 16:22:55;;;;;;;;;;;;;;;21.41;82.29;99809.39;186009;1234;45874;-57
2023/09/19 16:27:15;;;;;;;;;;;;;;;21.27;83.29;99810.77;186021;1234;59837;-57
2023/09/19 16:31:17;;;;;;;;;;;;;;;21.16;83.94;99812.14;185928;1234;43344;-58
2023/09/19 16:35:19;;;;;;;;;;;;;;;21.06;84.62;99814.20;185816;1233;43202;-57
2023/09/19 16:39:21;;;;;;;;;;;;;;;20.96;85.21;99815.66;185693;1234;44588;-58
2023/09/19 16:43:25;;;;;;;;;;;;;;;20.87;86.38;99820.67;185959;1234;45793;-57
2023/09/19 16:47:28;;;;;;;;;;;;;;;20.81;86.99;99820.77;185831;1234;57745;-57
2023/09/19 16:51:30;;;;;;;;;;;;;;;20.76;87.16;99822.57;185794;1233;43208;-57
2023/09/19 16:55:33;;;;;;;;;;;;;;;20.75;87.19;99825.83;185784;1234;45521;-57
2023/09/19 16:59:38;;;;;;;;;;;;;;;20.75;86.85;99829.81;185946;1237;43249;-57
2023/09/19 17:03:48;;;;;;;;;;;;;;;20.73;86.68;99831.67;185990;1234;43377;-58
2023/09/19 17:07:55;;;;;;;;;;;;;;;20.67;86.65;99831.91;185719;1234;58286;-57
2023/09/19 17:11:59;;;;;;;;;;;;;;;20.59;86.95;99837.79;185909;1234;43419;-58
2023/09/19 17:16:02;;;;;;;;;;;;;;;20.49;87.07;99844.61;185862;1234;44563;-58
2023/09/19 17:20:10;;;;;;;;;;;;;;;20.37;87.13;99848.59;185981;1234;43740;-58
2023/09/19 17:24:15;;;;;;;;;;;;;;;20.24;87.61;99845.34;185929;1234;45797;-57
2023/09/19 17:28:43;;;;;;;;;;;;;;;20.10;88.20;99850.00;185928;1234;58185;-58
2023/09/19 17:32:49;;;;;;;;;;;;;;;19.96;88.71;99857.69;185886;1234;43352;-57
2023/09/19 17:36:54;;;;;;;;;;;;;;;19.87;88.72;99864.33;185845;1234;43626;-58
2023/09/19 17:41:37;;;;;;;;;;;;;;;19.79;88.16;99872.58;185831;1233;45770;-57
2023/09/19 17:45:39;;;;;;;;;;;;;;;19.71;88.05;99872.02;185861;1233;43255;-57
2023/09/19 17:49:41;;;;;;;;;;;;;;;19.59;87.74;99874.04;185709;1236;60017;-57
2023/09/19 17:53:46;;;;;;;;;;;;;;;19.46;88.25;99877.23;185907;1234;43925;-57
2023/09/19 17:57:48;;;;;;;;;;;;;;;19.35;89.08;99882.30;185923;1237;44346;-57
2023/09/19 18:02:00;;;;;;;;;;;;;;;19.23;89.53;99888.54;185919;1234;44597;-57
2023/09/19 18:06:04;;;;;;;;;;;;;;;19.14;89.75;99893.14;185975;1233;43269;-58
2023/09/19 18:10:07;;;;;;;;;;;;;;;19.06;90.35;99895.68;185963;1234;58259;-58
2023/09/19 18:14:14;;;;;;;;;;;;;;;19.01;90.82;99895.33;185531;1235;43294;-58
2023/09/19 18:18:16;;;;;;;;;;;;;;;18.94;91.56;99897.30;185875;1234;43299;-58
2023/09/19 18:22:46;;;;;;;;;;;;;;;18.84;92.09;99903.04;185879;1234;43713;-58
2023/09/19 18:26:49;;;;;;;;;;;;;;;18.73;92.89;99907.30;185752;1234;45704;-57
2023/09/19 18:30:54;;;;;;;;;;;;;;;18.66;92.89;99909.73;185743;1233;58080;-58
2023/09/19 18:34:58;;;;;;;;;;;;;;;18.58;93.27;99903.91;185839;1233;43208;-58
2023/09/19 18:39:04;;;;;;;;;;;;;;;18.51;93.18;99904.95;185796;1234;43369;-58
2023/09/19 18:54:16;;;;;;;;;;;;;;;18.32;96.74;99907.52;181054;1261;577915;-57
2023/09/19 19:03:12;;;;;;;;;;;;;;;17.66;100.00;99916.53;185083;1240;45873;-57
2023/09/19 19:07:19;;;;;;;;;;;;;;;17.55;100.00;99916.04;185060;1237;43573;-57
2023/09/19 19:11:22;;;;;;;;;;;;;;;17.30;100.00;99921.58;185174;1237;43656;-57
2023/09/19 19:15:33;;;;;;;;;;;;;;;17.18;100.00;99927.70;185231;1237;45766;-56
2023/09/19 19:19:36;;;;;;;;;;;;;;;17.15;100.00;99928.90;185240;1237;57037;-56
2023/09/19 19:23:41;;;;;;;;;;;;;;;17.18;100.00;99926.44;185185;1237;43206;-57
2023/09/19 19:27:52;;;;;;;;;;;;;;;17.21;100.00;99926.74;184976;1237;45899;-57
2023/09/19 19:31:59;;;;;;;;;;;;;;;17.25;100.00;99925.33;185158;1237;43474;-57
2023/09/19 19:36:09;;;;;;;;;;;;;;;17.31;100.00;99928.57;185133;1237;45706;-57
2023/09/19 19:40:12;;;;;;;;;;;;;;;17.31;100.00;99927.22;185038;1237;58116;-56
2023/09/19 19:44:21;;;;;;;;;;;;;;;17.28;100.00;99930.80;185267;1237;43747;-56
2023/09/19 19:48:25;;;;;;;;;;;;;;;17.22;100.00;99934.70;185282;1237;45708;-56
2023/09/19 19:52:56;;;;;;;;;;;;;;;17.12;99.99;99940.02;184636;1240;43277;-57
2023/09/19 19:57:00;;;;;;;;;;;;;;;17.01;99.76;99940.02;184725;1240;44577;-56
2023/09/19 20:01:14;;;;;;;;;;;;;;;16.86;99.41;99941.12;184827;1240;58422;-57
2023/09/19 20:05:16;;;;;;;;;;;;;;;16.72;100.00;99943.60;184862;1240;43846;-56
2023/09/19 20:09:20;;;;;;;;;;;;;;;16.55;100.00;99953.98;184782;1237;44250;-56
2023/09/19 20:13:23;;;;;;;;;;;;;;;16.43;100.00;99953.64;185205;1237;43207;-56
2023/09/19 20:17:24;;;;;;;;;;;;;;;16.33;100.00;99946.50;185110;1237;44443;-57
2023/09/19 20:25:53;;;;;;;;;;;;;;;16.03;100.00;99956.01;182955;1238;44180;-87
2023/09/19 20:29:54;;;;;;;;;;;;;;;15.87;100.00;99967.67;182715;1238;45746;-88
2023/09/19 20:33:59;;;;;;;;;;;;;;;15.76;100.00;99969.29;182254;1238;45826;-87
2023/09/19 20:38:15;;;;;;;;;;;;;;;15.73;100.00;99972.10;182673;1239;45859;-89
2023/09/19 20:42:23;;;;;;;;;;;;;;;15.71;100.00;99972.48;182584;1238;59195;-89
2023/09/19 20:46:27;;;;;;;;;;;;;;;15.75;100.00;99971.06;182451;1238;45824;-89
2023/09/19 20:50:33;;;;;;;;;;;;;;;15.83;100.00;99970.31;182390;1238;46333;-88
2023/09/19 20:54:42;;;;;;;;;;;;;;;15.87;100.00;99973.48;182508;1242;45754;-88
2023/09/19 21:03:25;;;;;;;;;;;;;;;15.94;100.00;99978.19;185500;1238;57864;-58
2023/09/19 21:07:31;;;;;;;;;;;;;;;15.94;100.00;99978.70;185335;1239;43571;-60
2023/09/19 21:16:11;;;;;;;;;;;;;;;16.05;100.00;99984.27;185298;1238;44380;-59
2023/09/19 21:20:17;;;;;;;;;;;;;;;16.07;100.00;99988.48;185325;1238;43385;-58
2023/09/19 21:24:20;;;;;;;;;;;;;;;16.11;100.00;99988.83;185226;1238;58885;-58
2023/09/19 21:28:26;;;;;;;;;;;;;;;16.05;100.00;99993.53;185129;1239;43989;-59
2023/09/19 21:32:31;;;;;;;;;;;;;;;15.88;100.00;100000.36;185335;1242;43341;-59
2023/09/19 21:36:47;;;;;;;;;;;;;;;15.72;100.00;100000.14;185149;1238;43227;-59
2023/09/19 21:40:50;;;;;;;;;;;;;;;15.63;100.00;100004.55;185110;1240;44176;-60